Time;durP1;ratioP1;P1;durP2;ratioP2;P2;SDS_P1;SDS_P2;PMS_P1;PMS_P2;Temp;Humidity;BMP_temperature;BMP_pressure;BME280_temperature;BME280_humidity;BME280_pressure;Samples;Min_cycle;Max_cycle;Signal;HPM_P1;HPM_P2
2024/03/22 00:02:29;;;;;;;;;;;7.50;1.00;;;;;;5013904;28;19916;-80
2024/03/22 00:07:58;;;;;;;;;;;7.50;1.00;;;;;;5009153;28;19933;-79
2024/03/22 00:16:48;;;;;;;;;;;7.40;1.00;;;;;;5014281;28;19968;-76
2024/03/22 00:19:35;;;;;;;;;;;7.30;1.00;;;;;;5012851;28;19917;-76
2024/03/22 00:22:05;;;;;;;;;;;7.30;1.00;;;;;;5002141;28;19962;-75
2024/03/22 00:24:41;;;;;;;;;;;7.30;1.00;;;;;;5006669;28;19955;-75
2024/03/22 00:27:12;;;;;;;;;;;7.30;1.00;;;;;;5014235;28;19914;-75
2024/03/22 00:41:50;;;;;;;;;;;7.20;1.00;;;;;;4997446;28;19925;-80
2024/03/22 00:44:41;;;;;;;;;;;7.20;1.00;;;;;;5032045;28;19913;-80
2024/03/22 00:47:17;;;;;;;;;;;7.20;1.00;;;;;;5036498;28;19913;-75
2024/03/22 00:49:47;;;;;;;;;;;7.20;1.00;;;;;;5017306;28;19913;-75
2024/03/22 00:52:17;;;;;;;;;;;7.20;1.00;;;;;;5015179;28;19914;-75
2024/03/22 00:54:43;;;;;;;;;;;7.20;1.00;;;;;;4997804;28;19918;-75
2024/03/22 00:57:23;;;;;;;;;;;7.30;1.00;;;;;;5024209;28;19913;-76
2024/03/22 01:02:53;;;;;;;;;;;7.20;1.00;;;;;;5003589;28;20408;-76
2024/03/22 01:05:19;;;;;;;;;;;7.20;1.00;;;;;;5017069;28;19913;-76
2024/03/22 01:08:17;;;;;;;;;;;7.10;1.00;;;;;;5016828;28;19917;-76
2024/03/22 01:11:05;;;;;;;;;;;7.00;1.00;;;;;;5017057;28;20289;-76
2024/03/22 01:13:41;;;;;;;;;;;7.00;1.00;;;;;;5003961;28;20001;-75
2024/03/22 01:19:10;;;;;;;;;;;6.90;1.00;;;;;;5002954;28;20421;-79
2024/03/22 01:21:35;;;;;;;;;;;7.00;1.00;;;;;;5016442;28;19913;-79
2024/03/22 01:27:04;;;;;;;;;;;6.60;1.00;;;;;;5016489;28;20272;-79
2024/03/22 01:32:36;;;;;;;;;;;6.60;1.00;;;;;;5014159;28;19917;-75
2024/03/22 01:35:01;;;;;;;;;;;6.60;1.00;;;;;;5016697;28;19917;-75
2024/03/22 01:37:29;;;;;;;;;;;6.60;1.00;;;;;;5016583;28;20289;-75
2024/03/22 01:39:59;;;;;;;;;;;6.60;1.00;;;;;;5016410;28;19917;-76
2024/03/22 01:42:25;;;;;;;;;;;6.60;1.00;;;;;;5015699;28;19925;-75
2024/03/22 01:45:06;;;;;;;;;;;6.60;1.00;;;;;;5005104;28;19910;-75
2024/03/22 01:50:34;;;;;;;;;;;6.50;1.00;;;;;;5015962;28;19959;-80
2024/03/22 01:56:03;;;;;;;;;;;6.50;1.00;;;;;;5006375;28;20293;-79
2024/03/22 02:01:48;;;;;;;;;;;6.50;1.00;;;;;;5009541;28;19960;-75
2024/03/22 02:04:14;;;;;;;;;;;6.50;1.00;;;;;;5015945;28;19913;-75
2024/03/22 02:07:05;;;;;;;;;;;6.50;1.00;;;;;;5011727;28;20350;-76
2024/03/22 02:09:36;;;;;;;;;;;6.40;1.00;;;;;;4997340;28;19910;-76
2024/03/22 02:12:05;;;;;;;;;;;6.30;1.00;;;;;;5008807;28;19992;-76
2024/03/22 02:23:40;;;;;;;;;;;6.20;1.00;;;;;;5015562;28;19916;-80
2024/03/22 02:29:08;;;;;;;;;;;6.00;1.00;;;;;;5018568;28;19940;-80
2024/03/22 02:46:49;;;;;;;;;;;5.90;1.00;;;;;;5015350;28;19958;-80
2024/03/22 02:55:47;;;;;;;;;;;5.80;1.00;;;;;;5014696;28;19964;-81
2024/03/22 03:01:16;;;;;;;;;;;5.80;1.00;;;;;;5034832;28;19916;-76
2024/03/22 03:04:05;;;;;;;;;;;5.80;1.00;;;;;;5026564;28;19909;-76
2024/03/22 03:09:53;;;;;;;;;;;5.70;1.00;;;;;;5012905;28;20379;-75
2024/03/22 03:12:23;;;;;;;;;;;5.70;1.00;;;;;;5017812;28;20004;-76
2024/03/22 03:14:49;;;;;;;;;;;5.70;1.00;;;;;;5016582;28;20001;-76
2024/03/22 03:17:15;;;;;;;;;;;5.70;1.00;;;;;;5002730;28;19949;-80
2024/03/22 03:19:40;;;;;;;;;;;5.70;1.00;;;;;;4999872;28;19910;-80
2024/03/22 03:22:11;;;;;;;;;;;5.80;1.00;;;;;;5015365;28;19913;-80
2024/03/22 03:27:47;;;;;;;;;;;5.80;1.00;;;;;;5026198;28;19924;-80
2024/03/22 03:33:35;;;;;;;;;;;5.90;1.00;;;;;;5016975;28;19959;-81
2024/03/22 03:36:23;;;;;;;;;;;5.90;1.00;;;;;;5013547;28;20004;-80
2024/03/22 03:41:59;;;;;;;;;;;5.90;1.00;;;;;;5004817;28;19936;-81
2024/03/22 03:47:28;;;;;;;;;;;5.80;1.00;;;;;;5023650;28;19924;-81
2024/03/22 03:49:53;;;;;;;;;;;5.80;1.00;;;;;;5022262;28;19910;-76
2024/03/22 03:52:24;;;;;;;;;;;5.90;1.00;;;;;;5016794;28;20377;-75
2024/03/22 03:54:49;;;;;;;;;;;5.90;1.00;;;;;;5015501;28;19909;-76
2024/03/22 03:57:17;;;;;;;;;;;5.90;1.00;;;;;;5019206;28;19921;-76
2024/03/22 04:00:05;;;;;;;;;;;5.90;1.00;;;;;;5029150;28;19921;-76
2024/03/22 04:02:42;;;;;;;;;;;6.00;1.00;;;;;;5029292;28;19921;-75
2024/03/22 04:05:41;;;;;;;;;;;6.00;1.00;;;;;;5024265;28;19920;-76
2024/03/22 04:08:17;;;;;;;;;;;6.00;1.00;;;;;;5024565;28;19967;-76
2024/03/22 04:11:02;;;;;;;;;;;6.00;1.00;;;;;;5025130;28;19917;-75
2024/03/22 04:13:53;;;;;;;;;;;6.10;1.00;;;;;;5017797;28;20360;-76
2024/03/22 04:16:36;;;;;;;;;;;6.10;1.00;;;;;;5018880;28;19967;-76
2024/03/22 04:19:05;;;;;;;;;;;6.20;1.00;;;;;;5013348;28;19920;-76
2024/03/22 04:21:35;;;;;;;;;;;6.10;1.00;;;;;;5009858;28;19964;-75
2024/03/22 04:24:06;;;;;;;;;;;6.20;1.00;;;;;;5020064;28;19963;-76
2024/03/22 04:26:31;;;;;;;;;;;6.20;1.00;;;;;;5025841;28;20012;-76
2024/03/22 04:28:57;;;;;;;;;;;6.30;1.00;;;;;;5000030;28;20008;-76
2024/03/22 04:31:23;;;;;;;;;;;6.30;1.00;;;;;;5018730;28;19945;-76
2024/03/22 04:33:53;;;;;;;;;;;6.40;1.00;;;;;;5016666;28;19922;-76
2024/03/22 04:36:41;;;;;;;;;;;6.40;1.00;;;;;;5011894;28;19936;-76
2024/03/22 04:39:12;;;;;;;;;;;6.40;1.00;;;;;;5028180;28;19914;-76
2024/03/22 04:41:37;;;;;;;;;;;6.50;1.00;;;;;;5016794;28;19944;-75
2024/03/22 04:44:03;;;;;;;;;;;6.50;1.00;;;;;;5015594;28;19986;-76
2024/03/22 04:46:41;;;;;;;;;;;6.60;1.00;;;;;;5034470;28;19909;-76
2024/03/22 04:49:07;;;;;;;;;;;6.50;1.00;;;;;;5025289;28;19920;-78
2024/03/22 04:51:53;;;;;;;;;;;6.60;1.00;;;;;;5004311;28;20004;-76
2024/03/22 04:54:23;;;;;;;;;;;6.60;1.00;;;;;;5024353;28;19920;-75
2024/03/22 04:56:53;;;;;;;;;;;6.70;1.00;;;;;;5024908;28;19964;-77
2024/03/22 04:59:30;;;;;;;;;;;6.80;1.00;;;;;;5019713;28;19920;-76
2024/03/22 05:08:01;;;;;;;;;;;6.90;1.00;;;;;;4997296;28;19960;-79
2024/03/22 05:10:28;;;;;;;;;;;7.00;1.00;;;;;;4997008;28;19918;-79
2024/03/22 05:15:56;;;;;;;;;;;7.00;1.00;;;;;;5015134;28;19979;-79
2024/03/22 05:18:23;;;;;;;;;;;8.40;1.00;;;;;;5011580;28;20358;-75
2024/03/22 05:21:17;;;;;;;;;;;7.20;1.00;;;;;;5015930;28;19937;-76
2024/03/22 05:23:43;;;;;;;;;;;7.20;1.00;;;;;;5016543;28;20336;-76
2024/03/22 05:26:41;;;;;;;;;;;7.20;1.00;;;;;;5020278;28;19909;-76
2024/03/22 05:29:07;;;;;;;;;;;7.30;1.00;;;;;;5010057;28;19924;-75
2024/03/22 05:31:45;;;;;;;;;;;7.40;1.00;;;;;;4998656;28;19914;-77
2024/03/22 05:34:10;;;;;;;;;;;7.40;1.00;;;;;;5014946;28;19948;-76
2024/03/22 05:36:54;;;;;;;;;;;7.40;1.00;;;;;;5004855;28;19957;-81
2024/03/22 05:39:48;;;;;;;;;;;7.50;1.00;;;;;;5006534;28;19914;-79
2024/03/22 05:45:16;;;;;;;;;;;7.50;1.00;;;;;;5022657;28;19971;-79
2024/03/22 05:47:54;;;;;;;;;;;7.70;1.00;;;;;;5003261;28;19921;-79
2024/03/22 05:50:20;;;;;;;;;;;7.70;1.00;;;;;;5002200;28;19910;-76
2024/03/22 05:56:12;;;;;;;;;;;7.80;1.00;;;;;;5014265;28;19964;-78
2024/03/22 06:01:40;;;;;;;;;;;8.00;1.00;;;;;;5012686;28;19925;-77
2024/03/22 06:07:09;;;;;;;;;;;8.10;1.00;;;;;;5021231;28;19972;-81
2024/03/22 06:09:48;;;;;;;;;;;8.20;1.00;;;;;;5002394;28;19991;-81
2024/03/22 06:15:17;;;;;;;;;;;8.40;1.00;;;;;;5006274;28;19932;-81
2024/03/22 06:20:45;;;;;;;;;;;8.70;1.00;;;;;;5012967;28;19964;-77
2024/03/22 06:29:26;;;;;;;;;;;9.20;1.00;;;;;;5023739;28;19924;-78
2024/03/22 06:32:18;;;;;;;;;;;9.30;1.00;;;;;;5017851;28;19921;-78
2024/03/22 06:46:37;;;;;;;;;;;9.90;1.00;;;;;;5012537;28;19952;-78
2024/03/22 06:49:06;;;;;;;;;;;10.00;1.00;;;;;;4995648;28;19921;-78
2024/03/22 06:51:53;;;;;;;;;;;10.10;1.00;;;;;;4998926;28;19913;-78
2024/03/22 06:54:24;;;;;;;;;;;10.10;1.00;;;;;;5012014;28;19916;-78
2024/03/22 06:57:06;;;;;;;;;;;10.20;1.00;;;;;;5005813;28;19913;-78
2024/03/22 06:59:59;;;;;;;;;;;10.30;1.00;;;;;;5017733;28;19967;-77
2024/03/22 07:02:30;;;;;;;;;;;10.40;1.00;;;;;;5008078;28;19919;-77
2024/03/22 07:07:58;;;;;;;;;;;10.70;1.00;;;;;;5009485;28;19968;-80
2024/03/22 07:13:26;;;;;;;;;;;10.90;1.00;;;;;;5021974;28;19960;-81
2024/03/22 07:19:00;;;;;;;;;;;11.10;1.00;;;;;;5012926;28;20453;-77
2024/03/22 07:21:30;;;;;;;;;;;11.10;1.00;;;;;;5003589;28;19916;-77
2024/03/22 07:24:06;;;;;;;;;;;11.20;1.00;;;;;;5011967;28;19914;-76
2024/03/22 07:26:36;;;;;;;;;;;11.20;1.00;;;;;;5023540;28;19909;-77
2024/03/22 07:29:06;;;;;;;;;;;11.40;1.00;;;;;;5004440;28;20345;-77
2024/03/22 07:34:36;;;;;;;;;;;11.50;1.00;;;;;;5004425;28;19977;-79
2024/03/22 07:40:05;;;;;;;;;;;11.50;1.00;;;;;;5003621;28;20001;-80
2024/03/22 07:42:42;;;;;;;;;;;11.60;1.00;;;;;;5009648;28;21379;-80
2024/03/22 07:48:11;;;;;;;;;;;11.60;1.00;;;;;;5009408;28;19959;-79
2024/03/22 07:50:36;;;;;;;;;;;11.80;1.00;;;;;;5011866;28;19913;-77
2024/03/22 07:53:06;;;;;;;;;;;12.00;1.00;;;;;;5012109;28;19910;-77
2024/03/22 07:55:54;;;;;;;;;;;12.20;1.00;;;;;;5013740;28;19925;-76
2024/03/22 07:58:24;;;;;;;;;;;12.10;1.00;;;;;;5009898;28;19953;-76
2024/03/22 08:01:06;;;;;;;;;;;12.10;1.00;;;;;;5012163;28;19914;-77
2024/03/22 08:03:54;;;;;;;;;;;12.40;1.00;;;;;;5011573;28;20368;-77
2024/03/22 08:09:22;;;;;;;;;;;12.80;1.00;;;;;;5018160;28;19944;-80
2024/03/22 08:14:50;;;;;;;;;;;12.80;1.00;;;;;;5007754;28;19964;-80
2024/03/22 08:17:16;;;;;;;;;;;12.70;1.00;;;;;;5006819;28;19913;-82
2024/03/22 08:19:54;;;;;;;;;;;12.80;1.00;;;;;;5012174;28;19937;-80
2024/03/22 08:22:19;;;;;;;;;;;12.80;1.00;;;;;;5009380;28;19918;-80
2024/03/22 08:27:48;;;;;;;;;;;12.80;1.00;;;;;;5011785;28;19925;-80
2024/03/22 08:33:36;;;;;;;;;;;12.70;1.00;;;;;;5008141;28;19917;-80
2024/03/22 08:36:36;;;;;;;;;;;12.60;1.00;;;;;;4998425;28;19921;-76
2024/03/22 08:39:02;;;;;;;;;;;12.90;1.00;;;;;;5004707;28;19959;-76
2024/03/22 08:41:27;;;;;;;;;;;12.90;1.00;;;;;;5013337;28;19914;-77
2024/03/22 08:43:53;;;;;;;;;;;12.90;1.00;;;;;;5012982;28;20083;-77
2024/03/22 08:46:21;;;;;;;;;;;13.10;1.00;;;;;;5012413;28;20234;-76
2024/03/22 08:48:48;;;;;;;;;;;13.40;1.00;;;;;;4995212;28;19972;-76
2024/03/22 09:03:25;;;;;;;;;;;14.00;1.00;;;;;;5015545;28;19956;-80
2024/03/22 09:15:01;;;;;;;;;;;15.50;1.00;;;;;;5011136;28;20322;-80
2024/03/22 09:17:54;;;;;;;;;;;15.60;1.00;;;;;;5010362;28;19917;-80
2024/03/22 09:23:22;;;;;;;;;;;15.40;1.00;;;;;;5017296;28;20086;-79
2024/03/22 09:29:18;;;;;;;;;;;15.60;1.00;;;;;;5014490;28;19987;-80
2024/03/22 09:34:48;;;;;;;;;;;16.00;1.00;;;;;;5011144;28;19920;-80
2024/03/22 09:46:23;;;;;;;;;;;15.90;1.00;;;;;;5005120;28;20403;-80
2024/03/22 09:49:06;;;;;;;;;;;15.70;1.00;;;;;;5015377;28;19918;-80
2024/03/22 09:51:54;;;;;;;;;;;15.90;1.00;;;;;;4996142;28;19965;-77
2024/03/22 09:54:24;;;;;;;;;;;15.90;1.00;;;;;;5009561;28;19920;-77
2024/03/22 09:56:50;;;;;;;;;;;16.10;1.00;;;;;;5013117;28;20365;-77
2024/03/22 09:59:16;;;;;;;;;;;16.10;1.00;;;;;;5017280;28;19913;-77
2024/03/22 10:01:54;;;;;;;;;;;16.10;1.00;;;;;;5011877;28;20451;-77
2024/03/22 10:04:24;;;;;;;;;;;16.40;1.00;;;;;;5012474;28;19922;-77
2024/03/22 10:07:08;;;;;;;;;;;16.00;1.00;;;;;;5010655;28;19921;-80
2024/03/22 10:12:36;;;;;;;;;;;16.40;1.00;;;;;;5015743;28;19917;-80
2024/03/22 10:24:04;;;;;;;;;;;16.80;1.00;;;;;;5014852;28;20398;-80
2024/03/22 10:26:36;;;;;;;;;;;16.90;1.00;;;;;;5017794;28;19910;-80
2024/03/22 10:32:04;;;;;;;;;;;16.80;1.00;;;;;;5010051;28;19959;-80
2024/03/22 10:34:36;;;;;;;;;;;17.20;1.00;;;;;;5022460;28;19945;-83
2024/03/22 10:37:08;;;;;;;;;;;17.30;1.00;;;;;;5007329;28;19918;-77
2024/03/22 10:40:00;;;;;;;;;;;17.80;1.00;;;;;;5009081;28;19945;-77
2024/03/22 10:42:30;;;;;;;;;;;17.60;1.00;;;;;;5012381;28;19987;-77
2024/03/22 10:45:20;;;;;;;;;;;17.90;1.00;;;;;;5014415;28;20011;-78
2024/03/22 10:48:18;;;;;;;;;;;17.90;1.00;;;;;;5005611;28;19918;-77
2024/03/22 10:54:01;;;;;;;;;;;17.10;1.00;;;;;;5003093;28;19953;-90
2024/03/22 10:57:00;;;;;;;;;;;17.00;1.00;;;;;;5007858;28;19937;-88
2024/03/22 11:05:49;;;;;;;;;;;16.80;1.00;;;;;;5012938;28;19980;-85
2024/03/22 11:08:36;;;;;;;;;;;16.70;1.00;;;;;;5012961;28;19970;-87
2024/03/22 11:14:07;;;;;;;;;;;16.80;1.00;;;;;;5011697;28;19962;-87
2024/03/22 11:16:32;;;;;;;;;;;16.70;1.00;;;;;;5010096;28;19918;-88
2024/03/22 11:19:18;;;;;;;;;;;16.80;1.00;;;;;;4989111;28;20420;-91
2024/03/22 11:27:55;;;;;;;;;;;17.40;1.00;;;;;;4987380;28;19921;-81
2024/03/22 11:33:54;;;;;;;;;;;17.50;1.00;;;;;;4992952;28;19956;-81
2024/03/22 11:36:42;;;;;;;;;;;18.20;1.00;;;;;;4992415;28;20357;-78
2024/03/22 11:39:13;;;;;;;;;;;18.50;1.00;;;;;;4986916;28;19929;-77
2024/03/22 11:45:00;;;;;;;;;;;18.20;1.00;;;;;;4991055;28;19984;-78
2024/03/22 11:47:25;;;;;;;;;;;18.30;1.00;;;;;;4988037;28;20012;-77
2024/03/22 11:49:55;;;;;;;;;;;18.30;1.00;;;;;;4999973;28;20001;-77
2024/03/22 11:52:24;;;;;;;;;;;18.20;1.00;;;;;;5013313;28;20380;-77
2024/03/22 11:55:06;;;;;;;;;;;18.20;1.00;;;;;;4999693;28;19961;-78
2024/03/22 11:58:00;;;;;;;;;;;18.40;1.00;;;;;;5012796;28;19960;-77
2024/03/22 12:00:54;;;;;;;;;;;18.70;1.00;;;;;;5011425;28;19913;-78
2024/03/22 12:03:19;;;;;;;;;;;18.70;1.00;;;;;;4999660;28;19910;-78
2024/03/22 12:17:57;;;;;;;;;;;19.40;1.00;;;;;;5007768;28;19920;-82
2024/03/22 12:29:48;;;;;;;;;;;19.20;1.00;;;;;;5007528;28;19913;-81
2024/03/22 12:32:18;;;;;;;;;;;19.50;1.00;;;;;;5014904;28;19914;-81
2024/03/22 12:35:06;;;;;;;;;;;19.70;1.00;;;;;;5014236;28;19913;-81
2024/03/22 12:40:35;;;;;;;;;;;19.40;1.00;;;;;;5008720;28;19933;-81
2024/03/22 12:43:08;;;;;;;;;;;19.80;1.00;;;;;;5005982;28;19913;-80
2024/03/22 12:46:06;;;;;;;;;;;20.40;1.00;;;;;;5015652;28;19913;-81
2024/03/22 12:52:06;;;;;;;;;;;19.50;1.00;;;;;;5012011;28;19913;-80
2024/03/22 12:57:35;;;;;;;;;;;19.90;1.00;;;;;;5013497;28;19961;-81
2024/03/22 13:00:12;;;;;;;;;;;19.90;1.00;;;;;;5013828;28;19948;-81
2024/03/22 13:02:54;;;;;;;;;;;19.70;1.00;;;;;;5006079;28;20412;-81
2024/03/22 13:05:19;;;;;;;;;;;19.60;1.00;;;;;;5015135;28;19988;-81
2024/03/22 13:07:45;;;;;;;;;;;19.50;1.00;;;;;;5016238;28;20013;-81
2024/03/22 13:10:11;;;;;;;;;;;19.60;1.00;;;;;;5015845;28;19916;-81
2024/03/22 13:12:37;;;;;;;;;;;19.60;1.00;;;;;;5020027;28;19913;-81
2024/03/22 13:15:37;;;;;;;;;;;19.90;1.00;;;;;;5003207;28;19920;-81
2024/03/22 13:21:24;;;;;;;;;;;19.90;1.00;;;;;;5003395;28;19964;-81
2024/03/22 13:23:54;;;;;;;;;;;19.80;1.00;;;;;;5015744;28;20349;-78
2024/03/22 13:26:24;;;;;;;;;;;19.50;1.00;;;;;;5003232;28;19913;-77
2024/03/22 13:29:00;;;;;;;;;;;19.20;1.00;;;;;;5005610;28;19971;-77
2024/03/22 13:31:30;;;;;;;;;;;19.30;1.00;;;;;;5009959;28;19917;-77
2024/03/22 13:34:06;;;;;;;;;;;19.20;1.00;;;;;;5009572;28;19964;-77
2024/03/22 13:37:00;;;;;;;;;;;19.10;1.00;;;;;;5004484;28;19909;-78
2024/03/22 13:39:30;;;;;;;;;;;19.10;1.00;;;;;;5007535;28;19914;-80
2024/03/22 13:45:18;;;;;;;;;;;18.60;1.00;;;;;;5011645;28;19940;-77
2024/03/22 13:47:54;;;;;;;;;;;18.40;1.00;;;;;;5015929;28;19917;-82
2024/03/22 13:50:36;;;;;;;;;;;18.20;1.00;;;;;;5018751;28;19913;-80
2024/03/22 13:53:07;;;;;;;;;;;18.20;1.00;;;;;;5007070;28;20003;-80
2024/03/22 13:55:36;;;;;;;;;;;18.20;1.00;;;;;;5015771;28;19921;-79
2024/03/22 13:58:06;;;;;;;;;;;18.20;1.00;;;;;;5015962;28;19909;-79
2024/03/22 14:00:36;;;;;;;;;;;18.10;1.00;;;;;;5015549;28;19917;-79
2024/03/22 14:03:36;;;;;;;;;;;17.80;1.00;;;;;;5008268;28;20281;-80
2024/03/22 14:06:36;;;;;;;;;;;17.80;1.00;;;;;;5006374;28;19914;-80
2024/03/22 14:09:10;;;;;;;;;;;17.80;1.00;;;;;;5015880;28;19917;-80
2024/03/22 14:11:36;;;;;;;;;;;17.90;1.00;;;;;;5015660;28;19913;-79
2024/03/22 14:14:02;;;;;;;;;;;18.10;1.00;;;;;;4996064;28;19910;-80
2024/03/22 14:19:48;;;;;;;;;;;17.90;1.00;;;;;;5018769;28;19933;-79
2024/03/22 14:34:37;;;;;;;;;;;17.80;1.00;;;;;;5015312;28;19959;-84
2024/03/22 14:37:36;;;;;;;;;;;17.90;1.00;;;;;;5014408;28;19910;-84
2024/03/22 14:40:10;;;;;;;;;;;18.00;1.00;;;;;;5013618;28;19909;-79
2024/03/22 14:43:06;;;;;;;;;;;17.90;1.00;;;;;;5015210;28;19913;-79
2024/03/22 14:46:07;;;;;;;;;;;18.00;1.00;;;;;;5014629;28;20316;-78
2024/03/22 14:48:36;;;;;;;;;;;18.10;1.00;;;;;;5014748;28;19924;-79
2024/03/22 14:51:36;;;;;;;;;;;17.80;1.00;;;;;;5022315;28;19917;-79
2024/03/22 14:54:06;;;;;;;;;;;17.80;1.00;;;;;;5005673;28;19913;-84
2024/03/22 14:57:06;;;;;;;;;;;17.80;1.00;;;;;;5014044;28;19916;-84
2024/03/22 15:00:10;;;;;;;;;;;17.70;1.00;;;;;;5002780;28;19920;-85
2024/03/22 15:02:36;;;;;;;;;;;17.60;1.00;;;;;;5010696;28;19910;-84
2024/03/22 15:05:06;;;;;;;;;;;17.70;1.00;;;;;;5001507;28;19913;-84
2024/03/22 15:07:36;;;;;;;;;;;17.90;1.00;;;;;;5015010;28;19956;-84
2024/03/22 15:10:06;;;;;;;;;;;18.20;1.00;;;;;;5012802;28;19952;-79
2024/03/22 15:13:06;;;;;;;;;;;18.30;1.00;;;;;;5019282;28;19913;-80
2024/03/22 15:16:06;;;;;;;;;;;18.40;1.00;;;;;;5014821;28;19964;-79
2024/03/22 15:18:36;;;;;;;;;;;18.40;1.00;;;;;;5007672;28;20449;-79
2024/03/22 15:21:06;;;;;;;;;;;18.40;1.00;;;;;;5021570;28;19960;-79
2024/03/22 15:23:36;;;;;;;;;;;18.30;1.00;;;;;;5014615;28;19909;-85
2024/03/22 15:26:36;;;;;;;;;;;18.40;1.00;;;;;;5011482;28;19940;-84
2024/03/22 15:29:36;;;;;;;;;;;18.30;1.00;;;;;;5011275;28;19920;-83
2024/03/22 15:32:12;;;;;;;;;;;18.30;1.00;;;;;;5016938;28;19920;-82
2024/03/22 15:37:45;;;;;;;;;;;18.30;1.00;;;;;;4998138;28;20281;-83
2024/03/22 15:40:42;;;;;;;;;;;18.30;1.00;;;;;;5016785;28;19917;-82
2024/03/22 15:43:12;;;;;;;;;;;18.80;1.00;;;;;;5008280;28;20269;-83
2024/03/22 15:45:43;;;;;;;;;;;19.20;1.00;;;;;;5007898;28;19917;-83
2024/03/22 15:48:13;;;;;;;;;;;20.40;1.00;;;;;;5014003;28;20308;-82
2024/03/22 15:51:13;;;;;;;;;;;20.70;1.00;;;;;;5014070;28;19909;-82
2024/03/22 15:54:12;;;;;;;;;;;20.50;1.00;;;;;;5014926;28;19910;-81
2024/03/22 15:56:43;;;;;;;;;;;20.50;1.00;;;;;;5012363;28;19936;-81
2024/03/22 15:59:12;;;;;;;;;;;20.50;1.00;;;;;;5007637;28;20273;-82
2024/03/22 16:02:12;;;;;;;;;;;20.50;1.00;;;;;;5007432;28;19960;-78
2024/03/22 16:04:43;;;;;;;;;;;20.70;1.00;;;;;;5002251;28;20008;-81
2024/03/22 16:10:12;;;;;;;;;;;21.30;1.00;;;;;;5015989;28;19940;-78
2024/03/22 16:12:42;;;;;;;;;;;21.30;1.00;;;;;;5016044;28;19920;-78
2024/03/22 16:15:09;;;;;;;;;;;21.50;1.00;;;;;;5017839;28;19920;-78
2024/03/22 16:17:36;;;;;;;;;;;22.00;1.00;;;;;;5017722;28;19925;-77
2024/03/22 16:20:09;;;;;;;;;;;22.00;1.00;;;;;;5017936;28;19963;-77
2024/03/22 16:22:42;;;;;;;;;;;21.90;1.00;;;;;;5017747;28;19913;-77
2024/03/22 16:25:12;;;;;;;;;;;21.60;1.00;;;;;;5018050;28;19916;-78
2024/03/22 16:27:42;;;;;;;;;;;21.70;1.00;;;;;;5017585;28;19955;-77
2024/03/22 16:30:08;;;;;;;;;;;22.10;1.00;;;;;;5013388;28;19949;-78
2024/03/22 16:32:36;;;;;;;;;;;22.10;1.00;;;;;;4997960;28;19945;-78
2024/03/22 16:35:14;;;;;;;;;;;22.50;1.00;;;;;;5006952;28;19913;-78
2024/03/22 16:37:40;;;;;;;;;;;22.30;1.00;;;;;;5013598;28;19913;-78
2024/03/22 16:40:42;;;;;;;;;;;21.80;1.00;;;;;;4998545;28;20269;-81
2024/03/22 16:43:42;;;;;;;;;;;21.30;1.00;;;;;;4997729;28;19910;-81
2024/03/22 16:46:12;;;;;;;;;;;20.40;1.00;;;;;;5013408;28;19916;-82
2024/03/22 16:48:43;;;;;;;;;;;19.80;1.00;;;;;;5017124;28;19917;-81
2024/03/22 16:51:12;;;;;;;;;;;19.50;1.00;;;;;;5003927;28;20040;-81
2024/03/22 16:53:42;;;;;;;;;;;19.80;1.00;;;;;;5031369;28;19920;-81
2024/03/22 16:56:12;;;;;;;;;;;19.80;1.00;;;;;;5037391;28;19913;-81
2024/03/22 16:58:42;;;;;;;;;;;19.80;1.00;;;;;;5030495;28;19913;-80
2024/03/22 17:01:12;;;;;;;;;;;19.50;1.00;;;;;;5017199;28;19918;-81
2024/03/22 17:03:42;;;;;;;;;;;19.50;1.00;;;;;;4999323;28;19910;-81
2024/03/22 17:06:13;;;;;;;;;;;19.30;1.00;;;;;;4997340;28;19917;-80
2024/03/22 17:08:42;;;;;;;;;;;19.00;1.00;;;;;;5023027;28;20016;-80
2024/03/22 17:11:08;;;;;;;;;;;18.80;1.00;;;;;;5017500;28;19910;-78
2024/03/22 17:13:36;;;;;;;;;;;18.20;1.00;;;;;;5002677;28;19909;-78
2024/03/22 17:16:02;;;;;;;;;;;18.00;1.00;;;;;;5004073;28;19996;-78
2024/03/22 17:18:42;;;;;;;;;;;17.80;1.00;;;;;;5003471;28;19991;-77
2024/03/22 17:21:12;;;;;;;;;;;17.60;1.00;;;;;;5003549;28;19910;-79
2024/03/22 17:23:42;;;;;;;;;;;17.50;1.00;;;;;;5007931;28;19917;-78
2024/03/22 17:26:12;;;;;;;;;;;17.30;1.00;;;;;;4997489;28;20277;-81
2024/03/22 17:28:43;;;;;;;;;;;16.90;1.00;;;;;;5012004;28;19917;-80
2024/03/22 17:31:12;;;;;;;;;;;16.80;1.00;;;;;;5016472;28;20447;-80
2024/03/22 17:33:44;;;;;;;;;;;16.80;1.00;;;;;;5016552;28;19913;-81
2024/03/22 17:36:12;;;;;;;;;;;16.60;1.00;;;;;;5014057;28;19909;-80
2024/03/22 17:38:42;;;;;;;;;;;16.40;1.00;;;;;;5007411;28;19910;-80
2024/03/22 17:41:12;;;;;;;;;;;16.20;1.00;;;;;;5016567;28;19909;-80
2024/03/22 17:43:39;;;;;;;;;;;16.20;1.00;;;;;;5015924;28;19913;-83
2024/03/22 17:49:07;;;;;;;;;;;15.90;1.00;;;;;;5012438;28;19928;-80
2024/03/22 17:51:33;;;;;;;;;;;15.70;1.00;;;;;;5017957;28;19910;-81
2024/03/22 17:57:01;;;;;;;;;;;15.50;1.00;;;;;;5016639;28;20423;-85
2024/03/22 17:59:42;;;;;;;;;;;15.40;1.00;;;;;;5015778;28;19918;-82
2024/03/22 18:05:18;;;;;;;;;;;15.20;1.00;;;;;;5019725;28;20372;-77
2024/03/22 18:07:44;;;;;;;;;;;15.10;1.00;;;;;;5016247;28;19917;-73
2024/03/22 18:13:12;;;;;;;;;;;14.90;1.00;;;;;;5016826;28;19952;-80
2024/03/22 18:16:00;;;;;;;;;;;14.90;1.00;;;;;;5012715;28;20337;-80
2024/03/22 18:18:26;;;;;;;;;;;14.60;1.00;;;;;;5009836;28;19918;-76
2024/03/22 18:23:54;;;;;;;;;;;14.30;1.00;;;;;;4995836;28;20439;-79
2024/03/22 18:32:26;;;;;;;;;;;13.90;1.00;;;;;;5009751;28;19944;-80
2024/03/22 18:35:12;;;;;;;;;;;13.70;1.00;;;;;;5002894;28;20365;-79
2024/03/22 18:40:41;;;;;;;;;;;13.60;1.00;;;;;;5003233;28;19920;-78
2024/03/22 18:46:18;;;;;;;;;;;13.50;1.00;;;;;;5009127;28;19916;-77
2024/03/22 18:48:48;;;;;;;;;;;13.30;1.00;;;;;;5001450;28;19918;-77
2024/03/22 18:57:20;;;;;;;;;;;13.00;1.00;;;;;;5002070;28;19916;-77
2024/03/22 18:59:45;;;;;;;;;;;13.00;1.00;;;;;;5011817;28;19910;-77
2024/03/22 19:02:30;;;;;;;;;;;12.90;1.00;;;;;;5010148;28;20481;-77
2024/03/22 19:05:18;;;;;;;;;;;12.80;1.00;;;;;;5008338;28;19910;-76
2024/03/22 19:07:50;;;;;;;;;;;12.60;1.00;;;;;;5006704;28;19921;-76
2024/03/22 19:10:16;;;;;;;;;;;12.60;1.00;;;;;;5013276;28;19949;-77
2024/03/22 19:12:41;;;;;;;;;;;12.50;1.00;;;;;;5004419;28;19957;-77
2024/03/22 19:15:25;;;;;;;;;;;12.40;1.00;;;;;;5011242;28;19949;-75
2024/03/22 19:20:54;;;;;;;;;;;12.30;1.00;;;;;;5014666;28;19956;-76
2024/03/22 19:23:48;;;;;;;;;;;12.30;1.00;;;;;;5010285;28;19913;-77
2024/03/22 19:32:19;;;;;;;;;;;12.10;1.00;;;;;;5016842;28;19920;-81
2024/03/22 19:37:48;;;;;;;;;;;12.00;1.00;;;;;;5017281;28;19949;-80
2024/03/22 19:40:25;;;;;;;;;;;12.00;1.00;;;;;;5023396;28;20008;-80
2024/03/22 19:43:07;;;;;;;;;;;12.00;1.00;;;;;;5000579;28;20368;-76
2024/03/22 19:48:38;;;;;;;;;;;;;;;;;;5001398;28;20388;-76
2024/03/22 19:51:07;;;;;;;;;;;11.90;1.00;;;;;;5014200;28;19967;-76
2024/03/22 19:53:36;;;;;;;;;;;11.80;1.00;;;;;;5008333;28;19913;-76
2024/03/22 19:56:19;;;;;;;;;;;11.70;1.00;;;;;;5011890;28;19913;-77
2024/03/22 19:58:49;;;;;;;;;;;11.70;1.00;;;;;;5011251;28;19916;-76
2024/03/22 20:01:24;;;;;;;;;;;11.60;1.00;;;;;;5006614;28;20285;-76
2024/03/22 20:04:13;;;;;;;;;;;11.50;1.00;;;;;;5003112;28;19913;-76
2024/03/22 20:09:41;;;;;;;;;;;11.30;1.00;;;;;;5007424;28;19972;-76
2024/03/22 20:15:10;;;;;;;;;;;11.20;1.00;;;;;;5001411;28;19963;-80
2024/03/22 20:23:41;;;;;;;;;;;10.90;1.00;;;;;;5002400;28;19916;-80
2024/03/22 20:26:13;;;;;;;;;;;10.80;1.00;;;;;;5007857;28;19917;-81
2024/03/22 20:28:42;;;;;;;;;;;10.80;1.00;;;;;;5003555;28;20004;-76
2024/03/22 20:31:14;;;;;;;;;;;10.70;1.00;;;;;;5001812;28;19992;-76
2024/03/22 20:34:07;;;;;;;;;;;10.70;1.00;;;;;;5016424;28;20262;-76
2024/03/22 20:37:06;;;;;;;;;;;10.60;1.00;;;;;;5003362;28;19921;-76
2024/03/22 20:39:43;;;;;;;;;;;10.60;1.00;;;;;;5012678;28;19909;-77
2024/03/22 20:42:13;;;;;;;;;;;10.50;1.00;;;;;;5007743;28;20342;-76
2024/03/22 20:44:43;;;;;;;;;;;10.50;1.00;;;;;;5001638;28;20372;-76
2024/03/22 20:47:42;;;;;;;;;;;10.50;1.00;;;;;;5010164;28;20385;-76
2024/03/22 20:53:21;;;;;;;;;;;10.30;1.00;;;;;;5022136;28;19920;-76
2024/03/22 20:55:49;;;;;;;;;;;10.20;1.00;;;;;;5011585;28;20357;-76
2024/03/22 21:04:21;;;;;;;;;;;10.10;1.00;;;;;;5015921;28;19955;-81
2024/03/22 21:12:54;;;;;;;;;;;9.90;1.00;;;;;;4997489;28;20457;-77
2024/03/22 21:15:48;;;;;;;;;;;9.90;1.00;;;;;;5027154;28;19913;-77
2024/03/22 21:18:19;;;;;;;;;;;9.80;1.00;;;;;;5017443;28;19932;-76
2024/03/22 21:20:49;;;;;;;;;;;9.80;1.00;;;;;;5016670;28;20515;-76
2024/03/22 21:23:19;;;;;;;;;;;9.80;1.00;;;;;;5012543;28;20370;-76
2024/03/22 21:25:49;;;;;;;;;;;9.80;1.00;;;;;;5004996;28;20381;-77
2024/03/22 21:31:18;;;;;;;;;;;9.80;1.00;;;;;;5014116;28;20496;-81
2024/03/22 21:39:54;;;;;;;;;;;9.70;1.00;;;;;;4996930;28;19917;-80
2024/03/22 21:48:26;;;;;;;;;;;9.60;1.00;;;;;;5015812;28;19988;-81
2024/03/22 21:50:52;;;;;;;;;;;9.60;1.00;;;;;;4997765;28;19957;-81
2024/03/22 21:53:36;;;;;;;;;;;9.60;1.00;;;;;;4984204;28;20377;-81
2024/03/22 22:02:09;;;;;;;;;;;9.60;1.00;;;;;;4996320;28;19917;-81
2024/03/22 22:04:37;;;;;;;;;;;9.50;1.00;;;;;;5006508;28;19953;-81